createdAt,value
2024-01-19T00:01:12.269Z,1.00
2024-01-19T00:03:55.007Z,1.13
2024-01-19T00:06:39.517Z,1.25
2024-01-19T00:09:22.188Z,1.10
2024-01-19T00:12:05.149Z,1.52
2024-01-19T00:14:49.242Z,1.30
2024-01-19T00:17:31.942Z,1.50
2024-01-19T00:20:14.660Z,1.40
2024-01-19T00:22:57.487Z,1.52
2024-01-19T00:25:40.173Z,1.38
2024-01-19T00:28:22.910Z,1.50
2024-01-19T00:31:07.394Z,1.30
2024-01-19T00:33:50.128Z,1.27
2024-01-19T00:36:32.821Z,1.20
2024-01-19T00:39:15.956Z,1.20
2024-01-19T00:41:58.710Z,1.10
2024-01-19T00:44:41.388Z,1.10
2024-01-19T00:47:25.404Z,1.27
2024-01-19T00:50:09.103Z,0.98
2024-01-19T00:52:51.712Z,1.05
2024-01-19T00:55:34.401Z,1.20
2024-01-19T00:58:17.518Z,1.13
2024-01-19T01:01:00.273Z,1.00
2024-01-19T01:03:44.416Z,1.00
2024-01-19T01:06:30.265Z,1.08
2024-01-19T01:09:14.394Z,1.00
2024-01-19T01:11:57.183Z,1.10
2024-01-19T01:14:40.004Z,0.80
2024-01-19T01:17:22.873Z,1.17
2024-01-19T01:20:07.883Z,1.13
2024-01-19T01:22:50.583Z,0.95
2024-01-19T01:25:33.454Z,0.80
2024-01-19T01:28:16.186Z,0.65
2024-01-19T01:30:58.899Z,0.90
2024-01-19T01:33:41.888Z,0.80
2024-01-19T01:36:25.912Z,0.80
2024-01-19T01:39:08.668Z,0.63
2024-01-19T01:41:51.389Z,0.82
2024-01-19T01:44:34.159Z,1.02
2024-01-19T01:47:17.599Z,0.73
2024-01-19T01:50:00.526Z,0.88
2024-01-19T01:52:44.655Z,0.82
2024-01-19T01:55:27.353Z,0.90
2024-01-19T01:58:10.425Z,0.70
2024-01-19T02:00:53.998Z,0.90
2024-01-19T02:03:36.888Z,0.90
2024-01-19T02:06:19.754Z,1.00
2024-01-19T02:09:04.084Z,0.90
2024-01-19T02:11:46.965Z,0.90
2024-01-19T02:14:29.697Z,0.90
2024-01-19T02:17:12.381Z,1.23
2024-01-19T02:19:55.257Z,1.00
2024-01-19T02:22:38.432Z,1.05
2024-01-19T02:25:22.672Z,1.13
2024-01-19T02:28:05.531Z,0.80
2024-01-19T02:30:48.231Z,1.10
2024-01-19T02:33:31.024Z,1.00
2024-01-19T02:36:13.760Z,0.98
2024-01-19T02:38:56.664Z,0.80
2024-01-19T02:41:41.054Z,0.90
2024-01-19T02:44:23.843Z,0.90
2024-01-19T02:47:06.575Z,0.85
2024-01-19T02:49:49.308Z,0.93
2024-01-19T02:52:31.899Z,0.80
2024-01-19T02:55:14.609Z,0.90
2024-01-19T02:57:58.724Z,0.95
2024-01-19T03:00:41.431Z,0.80
2024-01-19T03:03:24.568Z,0.80
2024-01-19T03:06:07.881Z,0.80
2024-01-19T03:08:50.831Z,0.80
2024-01-19T03:11:33.635Z,0.73
2024-01-19T03:14:17.878Z,0.90
2024-01-19T03:17:00.605Z,0.75
2024-01-19T03:19:43.476Z,0.90
2024-01-19T03:22:26.236Z,0.60
2024-01-19T03:25:09.175Z,0.70
2024-01-19T03:27:51.918Z,0.60
2024-01-19T03:30:36.216Z,0.77
2024-01-19T03:33:19.235Z,0.50
2024-01-19T03:36:02.403Z,0.77
2024-01-19T03:38:45.548Z,0.85
2024-01-19T03:41:28.317Z,0.70
2024-01-19T03:44:11.206Z,0.70
2024-01-19T03:46:55.814Z,0.60
2024-01-19T03:49:38.640Z,0.60
2024-01-19T03:52:21.332Z,0.50
2024-01-19T03:55:04.144Z,0.55
2024-01-19T03:57:46.868Z,0.50
2024-01-19T04:00:29.636Z,0.65
2024-01-19T04:03:13.794Z,0.50
2024-01-19T04:05:56.663Z,0.70
2024-01-19T04:08:39.746Z,0.50
2024-01-19T04:11:22.581Z,0.68
2024-01-19T04:14:05.453Z,0.70
2024-01-19T04:16:48.178Z,0.70
2024-01-19T04:19:32.279Z,0.73
2024-01-19T04:22:15.013Z,0.60
2024-01-19T04:24:57.655Z,0.55
2024-01-19T04:27:41.108Z,0.50
2024-01-19T04:30:23.811Z,0.50
2024-01-19T04:33:06.630Z,0.60
2024-01-19T04:35:50.799Z,0.75
2024-01-19T04:38:34.850Z,0.50
2024-01-19T04:41:17.530Z,0.70
2024-01-19T04:44:00.405Z,0.50
2024-01-19T04:46:43.145Z,0.63
2024-01-19T04:49:26.104Z,0.55
2024-01-19T04:52:10.210Z,0.40
2024-01-19T04:54:53.024Z,0.60
2024-01-19T04:57:35.735Z,0.55
2024-01-19T05:00:18.660Z,0.70
2024-01-19T05:03:02.319Z,0.70
2024-01-19T05:05:45.265Z,0.60
2024-01-19T05:08:29.477Z,0.77
2024-01-19T05:11:15.336Z,0.85
2024-01-19T05:13:58.307Z,0.60
2024-01-19T05:16:41.085Z,0.60
2024-01-19T05:19:23.895Z,0.60
2024-01-19T05:22:07.642Z,0.70
2024-01-19T05:24:51.789Z,0.55
2024-01-19T05:27:34.509Z,0.60
2024-01-19T05:30:17.249Z,0.60
2024-01-19T05:33:00.182Z,0.50
2024-01-19T05:35:43.095Z,0.60
2024-01-19T05:38:25.893Z,0.75
2024-01-19T05:41:10.433Z,0.70
2024-01-19T05:43:53.165Z,0.70
2024-01-19T05:46:35.882Z,0.63
2024-01-19T05:49:18.774Z,0.60
2024-01-19T05:52:01.553Z,0.68
2024-01-19T05:54:44.425Z,0.82
2024-01-19T05:57:29.371Z,0.50
2024-01-19T06:00:12.654Z,0.90
2024-01-19T06:02:56.172Z,0.70
2024-01-19T06:05:39.196Z,0.60
2024-01-19T06:08:21.991Z,0.82
2024-01-19T06:11:04.918Z,0.73
2024-01-19T06:13:50.666Z,0.60
2024-01-19T06:16:33.482Z,0.70
2024-01-19T06:19:16.302Z,0.73
2024-01-19T06:21:59.487Z,0.80
2024-01-19T06:24:42.655Z,0.70
2024-01-19T06:27:25.457Z,0.68
2024-01-19T06:30:10.292Z,0.70
2024-01-19T06:32:53.175Z,0.70
2024-01-19T06:35:36.537Z,0.88
2024-01-19T06:38:19.496Z,0.70
2024-01-19T06:41:02.254Z,1.00
2024-01-19T06:43:45.134Z,0.75
2024-01-19T06:46:29.207Z,0.90
2024-01-19T06:49:12.369Z,0.60
2024-01-19T06:51:55.464Z,0.80
2024-01-19T06:54:38.281Z,0.80
2024-01-19T06:57:21.048Z,0.75
2024-01-19T07:00:05.111Z,0.60
2024-01-19T07:02:49.300Z,0.60
2024-01-19T07:05:32.278Z,0.70
2024-01-19T07:08:15.004Z,0.75
2024-01-19T07:10:58.114Z,0.70
2024-01-19T07:13:40.913Z,0.77
2024-01-19T07:16:23.764Z,0.70
2024-01-19T07:19:07.941Z,0.70
2024-01-19T07:21:51.020Z,0.68
2024-01-19T07:24:36.534Z,0.70
2024-01-19T07:27:19.312Z,0.60
2024-01-19T07:30:02.281Z,0.57
2024-01-19T07:32:55.769Z,0.70
2024-01-19T07:35:49.024Z,0.75
2024-01-19T07:38:31.914Z,0.63
2024-01-19T07:41:14.581Z,0.70
2024-01-19T07:43:57.379Z,0.68
2024-01-19T07:46:40.140Z,0.95
2024-01-19T07:49:23.032Z,0.70
2024-01-19T07:52:07.479Z,0.70
2024-01-19T07:54:50.334Z,0.70
2024-01-19T07:57:33.012Z,1.13
2024-01-19T08:00:16.218Z,0.70
2024-01-19T08:02:59.164Z,0.80
2024-01-19T08:05:42.159Z,0.73
2024-01-19T08:08:27.001Z,0.80
2024-01-19T08:11:09.813Z,0.80
2024-01-19T08:13:52.514Z,0.68
2024-01-19T08:16:35.270Z,0.80
2024-01-19T08:19:18.137Z,0.90
2024-01-19T08:22:00.982Z,0.73
2024-01-19T08:24:45.073Z,0.85
2024-01-19T08:27:28.630Z,0.98
2024-01-19T08:30:11.951Z,1.15
2024-01-19T08:32:54.771Z,0.73
2024-01-19T08:35:37.496Z,0.82
2024-01-19T08:38:20.356Z,1.00
2024-01-19T08:41:04.417Z,0.77
2024-01-19T08:43:47.176Z,0.82
2024-01-19T08:46:29.882Z,1.13
2024-01-19T08:49:13.128Z,0.80
2024-01-19T08:51:56.071Z,0.80
2024-01-19T08:54:40.044Z,0.63
2024-01-19T08:57:24.826Z,0.90
2024-01-19T09:00:08.854Z,0.80
2024-01-19T09:02:59.999Z,0.80
2024-01-19T09:05:46.925Z,0.70
2024-01-19T09:08:29.802Z,0.75
2024-01-19T09:11:12.693Z,1.00
2024-01-19T09:13:56.752Z,0.90
2024-01-19T09:16:39.504Z,0.85
2024-01-19T09:19:22.275Z,1.00
2024-01-19T09:22:05.253Z,1.00
2024-01-19T09:24:47.935Z,0.70
2024-01-19T09:27:30.856Z,0.90
2024-01-19T09:30:15.372Z,0.73
2024-01-19T09:32:58.540Z,0.80
2024-01-19T09:35:41.367Z,0.98
2024-01-19T09:38:24.450Z,0.70
2024-01-19T09:41:12.474Z,1.05
2024-01-19T09:43:56.228Z,0.80
2024-01-19T09:46:48.933Z,0.98
2024-01-19T09:49:40.526Z,0.77
2024-01-19T09:52:26.287Z,0.73
2024-01-19T09:55:10.429Z,1.30
2024-01-19T09:57:53.455Z,0.90
2024-01-19T10:00:36.243Z,1.13
2024-01-19T10:03:20.453Z,1.00
2024-01-19T10:06:04.751Z,0.80
2024-01-19T10:08:47.601Z,1.10
2024-01-19T10:11:31.440Z,0.88
2024-01-19T10:14:14.415Z,0.98
2024-01-19T10:16:57.151Z,1.00
2024-01-19T10:19:42.084Z,1.00
2024-01-19T10:22:25.926Z,0.88
2024-01-19T10:25:10.309Z,0.90
2024-01-19T10:27:53.954Z,1.02
2024-01-19T10:30:36.795Z,1.00
2024-01-19T10:33:19.731Z,0.75
2024-01-19T10:36:03.843Z,0.77
2024-01-19T10:38:46.599Z,0.95
2024-01-19T10:41:29.463Z,0.80
2024-01-19T10:44:13.040Z,0.70
2024-01-19T10:46:57.461Z,1.02
2024-01-19T10:49:40.312Z,0.88
2024-01-19T10:52:24.433Z,1.67
2024-01-19T10:55:07.315Z,1.10
2024-01-19T10:57:51.028Z,1.00
2024-01-19T11:00:33.943Z,1.00
2024-01-19T11:03:17.441Z,1.20
2024-01-19T11:06:02.188Z,0.98
2024-01-19T11:08:46.347Z,1.00
2024-01-19T11:11:32.559Z,1.00
2024-01-19T11:14:18.603Z,0.93
2024-01-19T11:17:01.418Z,0.98
2024-01-19T11:19:44.159Z,1.05
2024-01-19T11:22:27.385Z,1.13
2024-01-19T11:25:15.962Z,1.05
2024-01-19T11:28:02.277Z,1.05
2024-01-19T11:30:56.963Z,1.25
2024-01-19T11:33:39.832Z,1.05
2024-01-19T11:36:42.099Z,0.93
2024-01-19T11:39:45.535Z,1.23
2024-01-19T11:42:47.350Z,0.88
2024-01-19T11:45:40.649Z,1.08
2024-01-19T11:48:38.323Z,1.17
2024-01-19T11:51:33.851Z,0.70
2024-01-19T11:54:27.154Z,0.90
2024-01-19T11:57:19.368Z,0.70
2024-01-19T12:00:04.689Z,0.80
2024-01-19T12:02:48.059Z,1.17
2024-01-19T12:05:30.852Z,1.02
2024-01-19T12:08:13.933Z,0.70
2024-01-19T12:11:07.170Z,1.00
2024-01-19T12:13:55.429Z,0.70
2024-01-19T12:16:45.655Z,0.73
2024-01-19T12:19:28.589Z,0.80
2024-01-19T12:22:11.260Z,0.70
2024-01-19T12:24:54.176Z,0.80
2024-01-19T12:27:36.851Z,0.90
2024-01-19T12:30:20.805Z,0.93
2024-01-19T12:33:16.472Z,0.70
2024-01-19T12:36:08.009Z,0.90
2024-01-19T12:39:02.108Z,0.75
2024-01-19T12:41:46.844Z,0.70
2024-01-19T12:44:29.550Z,0.90
2024-01-19T12:47:13.337Z,0.88
2024-01-19T12:50:03.484Z,0.80
2024-01-19T12:52:52.884Z,0.75
2024-01-19T12:55:36.046Z,0.90
2024-01-19T12:58:22.613Z,0.77
2024-01-19T13:01:06.190Z,1.02
2024-01-19T13:03:49.530Z,0.80
2024-01-19T13:06:33.669Z,0.60
2024-01-19T13:09:17.015Z,0.70
2024-01-19T13:12:09.604Z,0.60
2024-01-19T13:14:52.340Z,0.80
2024-01-19T13:17:35.774Z,0.73
2024-01-19T13:20:27.683Z,0.80
2024-01-19T13:23:11.982Z,0.70
2024-01-19T13:25:55.477Z,0.70
2024-01-19T13:28:38.246Z,0.70
2024-01-19T13:31:21.041Z,0.80
2024-01-19T13:34:03.771Z,0.70
2024-01-19T13:36:46.560Z,0.90
2024-01-19T13:39:30.684Z,1.00
2024-01-19T13:42:13.507Z,0.70
2024-01-19T13:44:56.238Z,0.73
2024-01-19T13:47:39.455Z,1.10
2024-01-19T13:50:22.291Z,1.02
2024-01-19T13:53:05.253Z,0.82
2024-01-19T13:55:49.604Z,1.08
2024-01-19T13:58:32.409Z,1.13
2024-01-19T14:01:15.382Z,0.90
2024-01-19T14:03:58.191Z,0.90
2024-01-19T14:06:42.474Z,1.00
2024-01-19T14:09:25.647Z,1.20
2024-01-19T14:12:10.286Z,0.90
2024-01-19T14:14:53.034Z,1.00
2024-01-19T14:17:35.734Z,1.05
2024-01-19T14:20:18.724Z,1.05
2024-01-19T14:23:01.539Z,1.15
2024-01-19T14:25:44.372Z,1.30
2024-01-19T14:28:28.697Z,1.30
2024-01-19T14:31:11.496Z,1.30
2024-01-19T14:33:54.256Z,0.90
2024-01-19T14:36:37.101Z,1.00
2024-01-19T14:39:19.769Z,1.10
2024-01-19T14:42:02.512Z,1.02
2024-01-19T14:44:46.508Z,1.00
2024-01-19T14:47:29.406Z,1.27
2024-01-19T14:50:13.429Z,1.45
2024-01-19T14:53:02.460Z,0.82
2024-01-19T14:55:45.780Z,1.35
2024-01-19T14:58:28.519Z,1.00
2024-01-19T15:01:12.658Z,1.08
2024-01-19T15:03:55.536Z,1.20
2024-01-19T15:06:38.509Z,0.90
2024-01-19T15:09:21.263Z,1.20
2024-01-19T15:12:04.022Z,0.95
2024-01-19T15:14:47.045Z,1.20
2024-01-19T15:17:31.183Z,1.10
2024-01-19T15:20:14.558Z,0.90
2024-01-19T15:22:57.359Z,1.02
2024-01-19T15:25:40.177Z,1.10
2024-01-19T15:28:22.885Z,1.05
2024-01-19T15:31:05.959Z,1.27
2024-01-19T15:33:50.134Z,0.88
2024-01-19T15:36:34.455Z,0.75
2024-01-19T15:39:17.144Z,1.00
2024-01-19T15:42:02.341Z,1.10
2024-01-19T15:44:45.887Z,1.38
2024-01-19T15:47:28.891Z,1.25
2024-01-19T15:50:15.334Z,0.88
2024-01-19T15:52:58.480Z,1.17
2024-01-19T15:55:41.405Z,1.02
2024-01-19T15:58:24.232Z,1.20
2024-01-19T16:01:07.012Z,1.10
2024-01-19T16:03:49.948Z,1.10
2024-01-19T16:06:34.337Z,1.08
2024-01-19T16:09:17.659Z,1.20
2024-01-19T16:12:00.376Z,0.90
2024-01-19T16:14:43.171Z,0.80
2024-01-19T16:17:25.906Z,1.10
2024-01-19T16:20:11.256Z,0.95
2024-01-19T16:22:55.594Z,1.35
2024-01-19T16:25:41.408Z,1.10
2024-01-19T16:28:24.125Z,1.25
2024-01-19T16:31:07.152Z,0.85
2024-01-19T16:33:50.095Z,1.17
2024-01-19T16:36:32.909Z,1.13
2024-01-19T16:39:17.050Z,0.82
2024-01-19T16:41:59.878Z,0.98
2024-01-19T16:44:42.886Z,1.08
2024-01-19T16:47:26.171Z,1.17
2024-01-19T16:50:09.343Z,0.85
2024-01-19T16:52:53.388Z,1.08
2024-01-19T16:55:37.648Z,1.33
2024-01-19T16:58:20.546Z,1.27
2024-01-19T17:01:03.258Z,1.10
2024-01-19T17:03:46.068Z,1.10
2024-01-19T17:06:29.368Z,1.08
2024-01-19T17:09:12.205Z,1.00
2024-01-19T17:11:56.264Z,1.13
2024-01-19T17:14:40.184Z,1.00
2024-01-19T17:17:23.031Z,1.05
2024-01-19T17:20:06.460Z,1.00
2024-01-19T17:22:49.185Z,1.40
2024-01-19T17:25:32.622Z,1.48
2024-01-19T17:28:16.972Z,0.85
2024-01-19T17:31:00.445Z,1.02
2024-01-19T17:33:53.601Z,1.33
2024-01-19T17:36:45.404Z,1.45
2024-01-19T17:39:30.700Z,1.33
2024-01-19T17:42:13.942Z,1.13
2024-01-19T17:44:58.186Z,1.10
2024-01-19T17:47:40.955Z,1.20
2024-01-19T17:50:24.401Z,1.20
2024-01-19T17:53:07.805Z,1.20
2024-01-19T17:55:51.415Z,1.15
2024-01-19T17:58:34.248Z,1.10
2024-01-19T18:01:18.410Z,1.17
2024-01-19T18:04:02.661Z,1.25
2024-01-19T18:06:45.519Z,1.17
2024-01-19T18:09:29.353Z,1.10
2024-01-19T18:12:12.310Z,0.95
2024-01-19T18:14:55.084Z,1.38
2024-01-19T18:17:39.221Z,1.55
2024-01-19T18:20:22.219Z,1.50
2024-01-19T18:23:05.217Z,1.23
2024-01-19T18:25:48.160Z,1.30
2024-01-19T18:28:31.174Z,1.23
2024-01-19T18:31:14.078Z,1.00
2024-01-19T18:33:58.494Z,1.00
2024-01-19T18:36:42.332Z,0.93
2024-01-19T18:39:25.203Z,1.20
2024-01-19T18:42:08.381Z,1.13
2024-01-19T18:44:51.137Z,1.23
2024-01-19T18:47:33.999Z,1.13
2024-01-19T18:50:18.171Z,1.23
2024-01-19T18:53:01.264Z,1.30
2024-01-19T18:55:44.559Z,0.98
2024-01-19T18:58:27.741Z,1.30
2024-01-19T19:01:10.800Z,1.75
2024-01-19T19:03:54.875Z,1.35
2024-01-19T19:06:41.970Z,1.30
2024-01-19T19:09:26.265Z,1.23
2024-01-19T19:12:09.491Z,1.20
2024-01-19T19:14:52.675Z,1.25
2024-01-19T19:17:36.353Z,1.23
2024-01-19T19:20:21.451Z,1.45
2024-01-19T19:23:08.124Z,1.30
2024-01-19T19:25:51.403Z,1.30
2024-01-19T19:28:34.396Z,1.23
2024-01-19T19:31:17.415Z,1.13
2024-01-19T19:34:00.241Z,1.10
2024-01-19T19:36:44.268Z,1.45
2024-01-19T19:39:30.355Z,1.20
2024-01-19T19:42:14.313Z,1.05
2024-01-19T19:44:57.393Z,1.20
2024-01-19T19:47:40.514Z,1.17
2024-01-19T19:50:23.524Z,1.20
2024-01-19T19:53:06.616Z,1.30
2024-01-19T19:55:51.680Z,1.20
2024-01-19T19:58:34.961Z,1.23
2024-01-19T20:01:18.332Z,1.40
2024-01-19T20:04:01.607Z,1.35
2024-01-19T20:06:44.601Z,1.25
2024-01-19T20:09:28.142Z,1.50
2024-01-19T20:12:12.912Z,1.13
2024-01-19T20:14:56.093Z,1.50
2024-01-19T20:17:38.967Z,1.40
2024-01-19T20:20:21.961Z,1.38
2024-01-19T20:23:05.241Z,1.33
2024-01-19T20:25:48.321Z,1.33
2024-01-19T20:28:32.789Z,1.00
2024-01-19T20:31:15.972Z,1.30
2024-01-19T20:33:59.133Z,1.38
2024-01-19T20:36:42.075Z,1.23
2024-01-19T20:39:25.034Z,1.45
2024-01-19T20:42:08.391Z,1.50
2024-01-19T20:44:52.495Z,1.65
2024-01-19T20:47:35.325Z,1.55
2024-01-19T20:50:18.287Z,1.50
2024-01-19T20:53:04.740Z,1.45
2024-01-19T20:55:47.681Z,1.55
2024-01-19T20:58:30.520Z,1.48
2024-01-19T21:01:14.869Z,1.35
2024-01-19T21:03:57.765Z,1.15
2024-01-19T21:06:41.320Z,1.42
2024-01-19T21:09:25.001Z,1.30
2024-01-19T21:12:07.973Z,1.40
2024-01-19T21:14:51.162Z,1.60
2024-01-19T21:17:35.492Z,1.35
2024-01-19T21:20:19.921Z,1.58
2024-01-19T21:23:03.555Z,1.50
2024-01-19T21:25:46.821Z,1.33
2024-01-19T21:28:29.648Z,1.60
2024-01-19T21:31:12.956Z,1.52
2024-01-19T21:33:57.035Z,1.58
2024-01-19T21:36:41.610Z,1.20
2024-01-19T21:39:24.621Z,1.35
2024-01-19T21:42:07.633Z,1.42
2024-01-19T21:44:50.399Z,1.30
2024-01-19T21:47:33.782Z,1.40
2024-01-19T21:50:18.358Z,1.50
2024-01-19T21:53:01.470Z,1.38
2024-01-19T21:55:45.028Z,1.40
2024-01-19T21:58:31.437Z,1.40
2024-01-19T22:01:15.877Z,1.42
2024-01-19T22:04:00.918Z,1.45
2024-01-19T22:06:45.053Z,1.30
2024-01-19T22:09:28.959Z,1.25
2024-01-19T22:12:11.720Z,1.30
2024-01-19T22:14:54.457Z,1.80
2024-01-19T22:17:37.191Z,1.50
2024-01-19T22:20:20.148Z,1.45
2024-01-19T22:23:04.524Z,1.60
2024-01-19T22:25:47.303Z,1.40
2024-01-19T22:28:34.936Z,1.50
2024-01-19T22:31:18.246Z,1.60
2024-01-19T22:34:01.338Z,1.45
2024-01-19T22:36:44.775Z,1.42
2024-01-19T22:39:29.507Z,1.50
2024-01-19T22:42:14.030Z,1.58
2024-01-19T22:44:56.823Z,1.55
2024-01-19T22:47:39.831Z,1.73
2024-01-19T22:50:22.755Z,1.55
2024-01-19T22:53:05.673Z,1.90
2024-01-19T22:55:49.978Z,1.60
2024-01-19T22:58:33.116Z,1.48
2024-01-19T23:01:16.280Z,1.40
2024-01-19T23:03:59.216Z,1.38
2024-01-19T23:06:42.036Z,1.50
2024-01-19T23:09:26.635Z,1.83
2024-01-19T23:12:10.830Z,1.45
2024-01-19T23:14:53.657Z,1.38
2024-01-19T23:17:36.604Z,1.40
2024-01-19T23:20:19.696Z,1.30
2024-01-19T23:23:05.036Z,1.40
2024-01-19T23:25:48.833Z,1.70
2024-01-19T23:28:33.581Z,1.17
2024-01-19T23:31:16.379Z,1.60
2024-01-19T23:33:59.138Z,1.60
2024-01-19T23:36:42.243Z,1.30
2024-01-19T23:39:27.293Z,1.48
2024-01-19T23:42:11.117Z,1.48
2024-01-19T23:44:55.725Z,1.55
2024-01-19T23:47:38.545Z,1.50
2024-01-19T23:50:22.163Z,1.50
2024-01-19T23:53:05.226Z,1.77
2024-01-19T23:55:48.309Z,1.65
2024-01-19T23:58:31.124Z,1.67
